sensor_id;sensor_type;location;lat;lon;timestamp;pressure;altitude;pressure_sealevel;temperature;humidity
12358;BME280;6243;51.244;6.774;2023-07-29T00:01:20;115150.97;;;-141.28;56.86
12358;BME280;6243;51.244;6.774;2023-07-29T00:03:47;115150.97;;;-141.28;58.09
12358;BME280;6243;51.244;6.774;2023-07-29T00:06:13;115150.97;;;-141.28;53.43
12358;BME280;6243;51.244;6.774;2023-07-29T00:08:38;115150.97;;;-141.28;52.86
12358;BME280;6243;51.244;6.774;2023-07-29T00:11:04;115150.97;;;-141.28;53.91
12358;BME280;6243;51.244;6.774;2023-07-29T00:13:29;115150.97;;;-141.28;53.61
12358;BME280;6243;51.244;6.774;2023-07-29T00:15:55;115150.97;;;-141.28;51.83
12358;BME280;6243;51.244;6.774;2023-07-29T00:18:20;115150.97;;;-141.28;53.86
12358;BME280;6243;51.244;6.774;2023-07-29T00:20:47;115150.97;;;-141.28;52.40
12358;BME280;6243;51.244;6.774;2023-07-29T00:23:13;115150.97;;;-141.28;54.15
12358;BME280;6243;51.244;6.774;2023-07-29T00:25:39;115150.97;;;-141.28;50.78
12358;BME280;6243;51.244;6.774;2023-07-29T00:28:04;115150.97;;;-141.28;51.58
12358;BME280;6243;51.244;6.774;2023-07-29T00:30:30;115150.97;;;-141.28;52.79
12358;BME280;6243;51.244;6.774;2023-07-29T00:32:55;115150.97;;;-141.28;51.73
12358;BME280;6243;51.244;6.774;2023-07-29T00:35:21;115150.97;;;-141.28;52.82
12358;BME280;6243;51.244;6.774;2023-07-29T00:37:48;115150.97;;;-141.28;53.25
12358;BME280;6243;51.244;6.774;2023-07-29T00:40:15;115150.97;;;-141.28;50.43
12358;BME280;6243;51.244;6.774;2023-07-29T00:42:44;115150.97;;;-141.28;49.99
12358;BME280;6243;51.244;6.774;2023-07-29T00:45:10;115150.97;;;-141.28;50.36
12358;BME280;6243;51.244;6.774;2023-07-29T00:47:35;115150.97;;;-141.28;48.55
12358;BME280;6243;51.244;6.774;2023-07-29T00:50:01;115150.97;;;-141.28;47.76
12358;BME280;6243;51.244;6.774;2023-07-29T00:52:27;115150.97;;;-141.28;47.37
12358;BME280;6243;51.244;6.774;2023-07-29T00:54:54;115150.97;;;-141.28;49.50
12358;BME280;6243;51.244;6.774;2023-07-29T00:57:19;115150.97;;;-141.28;48.58
12358;BME280;6243;51.244;6.774;2023-07-29T00:59:46;115150.97;;;-141.28;48.66
12358;BME280;6243;51.244;6.774;2023-07-29T01:02:11;115150.97;;;-141.28;47.65
12358;BME280;6243;51.244;6.774;2023-07-29T01:04:37;115150.97;;;-141.28;47.84
12358;BME280;6243;51.244;6.774;2023-07-29T01:07:07;115150.97;;;-141.28;46.83
12358;BME280;6243;51.244;6.774;2023-07-29T01:09:43;115150.97;;;-141.28;49.06
12358;BME280;6243;51.244;6.774;2023-07-29T01:12:17;115150.97;;;-141.28;52.80
12358;BME280;6243;51.244;6.774;2023-07-29T01:14:47;115150.97;;;-141.28;50.30
12358;BME280;6243;51.244;6.774;2023-07-29T01:17:22;115150.97;;;-141.28;49.24
12358;BME280;6243;51.244;6.774;2023-07-29T01:19:59;115150.97;;;-141.28;49.78
12358;BME280;6243;51.244;6.774;2023-07-29T01:22:25;115150.97;;;-141.28;49.88
12358;BME280;6243;51.244;6.774;2023-07-29T01:24:52;115150.97;;;-141.28;51.05
12358;BME280;6243;51.244;6.774;2023-07-29T01:27:17;115150.97;;;-141.28;51.00
12358;BME280;6243;51.244;6.774;2023-07-29T01:29:43;115150.97;;;-141.28;49.43
12358;BME280;6243;51.244;6.774;2023-07-29T01:32:11;115150.97;;;-141.28;55.08
12358;BME280;6243;51.244;6.774;2023-07-29T01:34:45;115150.97;;;-141.28;50.02
12358;BME280;6243;51.244;6.774;2023-07-29T01:37:16;115150.97;;;-141.28;50.05
12358;BME280;6243;51.244;6.774;2023-07-29T01:39:45;115150.97;;;-141.28;49.54
12358;BME280;6243;51.244;6.774;2023-07-29T01:42:12;115150.97;;;-141.28;53.13
12358;BME280;6243;51.244;6.774;2023-07-29T01:44:37;115150.97;;;-141.28;49.58
12358;BME280;6243;51.244;6.774;2023-07-29T01:47:03;115150.97;;;-141.28;50.76
12358;BME280;6243;51.244;6.774;2023-07-29T01:49:29;115150.97;;;-141.28;54.41
12358;BME280;6243;51.244;6.774;2023-07-29T01:51:54;115150.97;;;-141.28;50.14
12358;BME280;6243;51.244;6.774;2023-07-29T01:54:20;115150.97;;;-141.28;50.52
12358;BME280;6243;51.244;6.774;2023-07-29T01:56:45;115150.97;;;-141.28;50.71
12358;BME280;6243;51.244;6.774;2023-07-29T01:59:12;115150.97;;;-141.28;50.25
12358;BME280;6243;51.244;6.774;2023-07-29T02:01:37;115150.97;;;-141.28;50.61
12358;BME280;6243;51.244;6.774;2023-07-29T02:04:03;115150.97;;;-141.28;49.87
12358;BME280;6243;51.244;6.774;2023-07-29T02:06:29;115150.97;;;-141.28;50.58
12358;BME280;6243;51.244;6.774;2023-07-29T02:08:55;115150.97;;;-141.28;49.83
12358;BME280;6243;51.244;6.774;2023-07-29T02:11:21;115150.97;;;-141.28;50.66
12358;BME280;6243;51.244;6.774;2023-07-29T02:13:46;115150.97;;;-141.28;53.53
12358;BME280;6243;51.244;6.774;2023-07-29T02:16:13;115150.97;;;-141.28;52.66
12358;BME280;6243;51.244;6.774;2023-07-29T02:18:39;115150.97;;;-141.28;55.07
12358;BME280;6243;51.244;6.774;2023-07-29T02:21:04;115150.97;;;-141.28;51.57
12358;BME280;6243;51.244;6.774;2023-07-29T02:23:29;115150.97;;;-141.28;56.50
12358;BME280;6243;51.244;6.774;2023-07-29T02:25:55;115150.97;;;-141.28;52.82
12358;BME280;6243;51.244;6.774;2023-07-29T02:28:21;115150.97;;;-141.28;52.86
12358;BME280;6243;51.244;6.774;2023-07-29T02:30:46;115150.97;;;-141.28;57.78
12358;BME280;6243;51.244;6.774;2023-07-29T02:33:13;115150.97;;;-141.28;54.86
12358;BME280;6243;51.244;6.774;2023-07-29T02:35:38;115150.97;;;-141.28;55.83
12358;BME280;6243;51.244;6.774;2023-07-29T02:38:04;115150.97;;;-141.28;57.97
12358;BME280;6243;51.244;6.774;2023-07-29T02:40:29;115150.97;;;-141.28;55.33
12358;BME280;6243;51.244;6.774;2023-07-29T02:42:55;115150.97;;;-141.28;58.49
12358;BME280;6243;51.244;6.774;2023-07-29T02:45:21;115150.97;;;-141.28;55.78
12358;BME280;6243;51.244;6.774;2023-07-29T02:47:46;115150.97;;;-141.28;53.17
12358;BME280;6243;51.244;6.774;2023-07-29T02:50:13;115150.97;;;-141.28;51.54
12358;BME280;6243;51.244;6.774;2023-07-29T02:52:39;115150.97;;;-141.28;51.23
12358;BME280;6243;51.244;6.774;2023-07-29T02:55:05;115150.97;;;-141.28;50.52
12358;BME280;6243;51.244;6.774;2023-07-29T02:57:31;115150.97;;;-141.28;50.21
12358;BME280;6243;51.244;6.774;2023-07-29T02:59:56;115150.97;;;-141.28;50.82
12358;BME280;6243;51.244;6.774;2023-07-29T03:02:22;115150.97;;;-141.28;50.20
12358;BME280;6243;51.244;6.774;2023-07-29T03:04:47;115150.97;;;-141.28;49.71
12358;BME280;6243;51.244;6.774;2023-07-29T03:07:14;115150.97;;;-141.28;50.39
12358;BME280;6243;51.244;6.774;2023-07-29T03:09:40;115150.97;;;-141.28;52.05
12358;BME280;6243;51.244;6.774;2023-07-29T03:12:06;115150.97;;;-141.28;51.41
12358;BME280;6243;51.244;6.774;2023-07-29T03:14:31;115150.97;;;-141.28;52.06
12358;BME280;6243;51.244;6.774;2023-07-29T03:16:57;115150.97;;;-141.28;49.97
12358;BME280;6243;51.244;6.774;2023-07-29T03:19:22;115150.97;;;-141.28;48.27
12358;BME280;6243;51.244;6.774;2023-07-29T03:21:49;115150.97;;;-141.28;48.07
12358;BME280;6243;51.244;6.774;2023-07-29T03:24:16;115150.97;;;-141.28;48.39
12358;BME280;6243;51.244;6.774;2023-07-29T03:26:41;115150.97;;;-141.28;48.32
12358;BME280;6243;51.244;6.774;2023-07-29T03:29:07;115150.97;;;-141.28;51.31
12358;BME280;6243;51.244;6.774;2023-07-29T03:31:32;115150.97;;;-141.28;49.38
12358;BME280;6243;51.244;6.774;2023-07-29T03:33:58;115150.97;;;-141.28;49.03
12358;BME280;6243;51.244;6.774;2023-07-29T03:36:23;115150.97;;;-141.28;50.00
12358;BME280;6243;51.244;6.774;2023-07-29T03:38:49;115150.97;;;-141.28;48.87
12358;BME280;6243;51.244;6.774;2023-07-29T03:41:15;115150.97;;;-141.28;48.64
12358;BME280;6243;51.244;6.774;2023-07-29T03:43:41;115150.97;;;-141.28;49.56
12358;BME280;6243;51.244;6.774;2023-07-29T03:46:07;115150.97;;;-141.28;49.87
12358;BME280;6243;51.244;6.774;2023-07-29T03:48:32;115150.97;;;-141.28;52.99
12358;BME280;6243;51.244;6.774;2023-07-29T03:50:58;115150.97;;;-141.28;52.78
12358;BME280;6243;51.244;6.774;2023-07-29T03:53:23;115150.97;;;-141.28;49.70
12358;BME280;6243;51.244;6.774;2023-07-29T03:55:49;115150.97;;;-141.28;49.08
12358;BME280;6243;51.244;6.774;2023-07-29T03:58:16;115150.97;;;-141.28;48.90
12358;BME280;6243;51.244;6.774;2023-07-29T04:00:41;115150.97;;;-141.28;48.73
12358;BME280;6243;51.244;6.774;2023-07-29T04:03:07;115150.97;;;-141.28;49.66
12358;BME280;6243;51.244;6.774;2023-07-29T04:05:33;115150.97;;;-141.28;49.87
12358;BME280;6243;51.244;6.774;2023-07-29T04:07:59;115150.97;;;-141.28;50.39
12358;BME280;6243;51.244;6.774;2023-07-29T04:10:24;115150.97;;;-141.28;51.27
12358;BME280;6243;51.244;6.774;2023-07-29T04:12:50;115150.97;;;-141.28;50.58
12358;BME280;6243;51.244;6.774;2023-07-29T04:15:17;115150.97;;;-141.28;49.77
12358;BME280;6243;51.244;6.774;2023-07-29T04:17:43;115150.97;;;-141.28;49.74
12358;BME280;6243;51.244;6.774;2023-07-29T04:20:09;115150.97;;;-141.28;49.35
12358;BME280;6243;51.244;6.774;2023-07-29T04:22:35;115150.97;;;-141.28;51.30
12358;BME280;6243;51.244;6.774;2023-07-29T04:25:01;115150.97;;;-141.28;52.86
12358;BME280;6243;51.244;6.774;2023-07-29T04:27:26;115150.97;;;-141.28;49.75
12358;BME280;6243;51.244;6.774;2023-07-29T04:29:51;115150.97;;;-141.28;50.13
12358;BME280;6243;51.244;6.774;2023-07-29T04:32:18;115150.97;;;-141.28;49.02
12358;BME280;6243;51.244;6.774;2023-07-29T04:34:44;115150.97;;;-141.28;49.56
12358;BME280;6243;51.244;6.774;2023-07-29T04:37:10;115150.97;;;-141.28;49.35
12358;BME280;6243;51.244;6.774;2023-07-29T04:39:35;115150.97;;;-141.28;49.23
12358;BME280;6243;51.244;6.774;2023-07-29T04:42:01;115150.97;;;-141.28;48.70
12358;BME280;6243;51.244;6.774;2023-07-29T04:44:26;115150.97;;;-141.28;48.55
12358;BME280;6243;51.244;6.774;2023-07-29T04:46:52;115150.97;;;-141.28;49.02
12358;BME280;6243;51.244;6.774;2023-07-29T04:49:18;115150.97;;;-141.28;48.65
12358;BME280;6243;51.244;6.774;2023-07-29T04:51:44;115150.97;;;-141.28;48.75
12358;BME280;6243;51.244;6.774;2023-07-29T04:54:09;115150.97;;;-141.28;47.13
12358;BME280;6243;51.244;6.774;2023-07-29T04:56:35;115150.97;;;-141.28;47.42
12358;BME280;6243;51.244;6.774;2023-07-29T04:59:00;115150.97;;;-141.28;48.44
12358;BME280;6243;51.244;6.774;2023-07-29T05:01:26;115150.97;;;-141.28;47.93
12358;BME280;6243;51.244;6.774;2023-07-29T05:03:51;115150.97;;;-141.28;49.14
12358;BME280;6243;51.244;6.774;2023-07-29T05:06:18;115150.97;;;-141.28;48.59
12358;BME280;6243;51.244;6.774;2023-07-29T05:08:44;115150.97;;;-141.28;48.20
12358;BME280;6243;51.244;6.774;2023-07-29T05:11:09;115150.97;;;-141.28;49.13
12358;BME280;6243;51.244;6.774;2023-07-29T05:13:35;115150.97;;;-141.28;48.38
12358;BME280;6243;51.244;6.774;2023-07-29T05:16:01;115150.97;;;-141.28;48.63
12358;BME280;6243;51.244;6.774;2023-07-29T05:18:26;115150.97;;;-141.28;49.01
12358;BME280;6243;51.244;6.774;2023-07-29T05:20:52;115150.97;;;-141.28;48.17
12358;BME280;6243;51.244;6.774;2023-07-29T05:23:18;115150.97;;;-141.28;48.48
12358;BME280;6243;51.244;6.774;2023-07-29T05:25:44;115150.97;;;-141.28;47.54
12358;BME280;6243;51.244;6.774;2023-07-29T05:28:09;115150.97;;;-141.28;47.82
12358;BME280;6243;51.244;6.774;2023-07-29T05:30:35;115150.97;;;-141.28;47.70
12358;BME280;6243;51.244;6.774;2023-07-29T05:33:00;115150.97;;;-141.28;47.90
12358;BME280;6243;51.244;6.774;2023-07-29T05:35:26;115150.97;;;-141.28;47.80
12358;BME280;6243;51.244;6.774;2023-07-29T05:37:52;115150.97;;;-141.28;48.12
12358;BME280;6243;51.244;6.774;2023-07-29T05:40:19;115150.97;;;-141.28;47.61
12358;BME280;6243;51.244;6.774;2023-07-29T05:42:44;115150.97;;;-141.28;47.86
12358;BME280;6243;51.244;6.774;2023-07-29T05:45:10;115150.97;;;-141.28;47.63
12358;BME280;6243;51.244;6.774;2023-07-29T05:47:36;115150.97;;;-141.28;48.47
12358;BME280;6243;51.244;6.774;2023-07-29T05:50:01;115150.97;;;-141.28;47.40
12358;BME280;6243;51.244;6.774;2023-07-29T05:52:27;115150.97;;;-141.28;47.86
12358;BME280;6243;51.244;6.774;2023-07-29T05:54:52;115150.97;;;-141.28;47.53
12358;BME280;6243;51.244;6.774;2023-07-29T05:57:19;115150.97;;;-141.28;47.77
12358;BME280;6243;51.244;6.774;2023-07-29T05:59:45;115150.97;;;-141.28;48.01
12358;BME280;6243;51.244;6.774;2023-07-29T06:02:10;115150.97;;;-141.28;47.65
12358;BME280;6243;51.244;6.774;2023-07-29T06:04:36;115150.97;;;-141.28;46.67
12358;BME280;6243;51.244;6.774;2023-07-29T06:07:01;115150.97;;;-141.28;46.25
12358;BME280;6243;51.244;6.774;2023-07-29T06:09:27;115150.97;;;-141.28;47.03
12358;BME280;6243;51.244;6.774;2023-07-29T06:11:52;115150.97;;;-141.28;46.89
12358;BME280;6243;51.244;6.774;2023-07-29T06:14:19;115150.97;;;-141.28;48.23
12358;BME280;6243;51.244;6.774;2023-07-29T06:16:44;115150.97;;;-141.28;46.94
12358;BME280;6243;51.244;6.774;2023-07-29T06:19:10;115150.97;;;-141.28;46.34
12358;BME280;6243;51.244;6.774;2023-07-29T06:21:35;115150.97;;;-141.28;46.53
12358;BME280;6243;51.244;6.774;2023-07-29T06:24:01;115150.97;;;-141.28;46.89
12358;BME280;6243;51.244;6.774;2023-07-29T06:26:27;115150.97;;;-141.28;46.41
12358;BME280;6243;51.244;6.774;2023-07-29T06:28:52;115150.97;;;-141.28;46.18
12358;BME280;6243;51.244;6.774;2023-07-29T06:31:19;115150.97;;;-141.28;44.94
12358;BME280;6243;51.244;6.774;2023-07-29T06:33:45;115150.97;;;-141.28;44.63
12358;BME280;6243;51.244;6.774;2023-07-29T06:36:10;115150.97;;;-141.28;44.63
12358;BME280;6243;51.244;6.774;2023-07-29T06:38:36;115150.97;;;-141.28;44.84
12358;BME280;6243;51.244;6.774;2023-07-29T06:41:01;115150.97;;;-141.28;44.11
12358;BME280;6243;51.244;6.774;2023-07-29T06:43:27;115150.97;;;-141.28;43.90
12358;BME280;6243;51.244;6.774;2023-07-29T06:45:52;115150.97;;;-141.28;44.50
12358;BME280;6243;51.244;6.774;2023-07-29T06:48:19;115150.97;;;-141.28;44.86
12358;BME280;6243;51.244;6.774;2023-07-29T06:50:45;115150.97;;;-141.28;44.23
12358;BME280;6243;51.244;6.774;2023-07-29T06:53:10;115150.97;;;-141.28;43.47
12358;BME280;6243;51.244;6.774;2023-07-29T06:55:36;115150.97;;;-141.28;43.94
12358;BME280;6243;51.244;6.774;2023-07-29T06:58:01;115150.97;;;-141.28;43.42
12358;BME280;6243;51.244;6.774;2023-07-29T07:00:27;115150.97;;;-141.28;44.80
12358;BME280;6243;51.244;6.774;2023-07-29T07:02:52;115150.97;;;-141.28;45.16
12358;BME280;6243;51.244;6.774;2023-07-29T07:05:19;115150.97;;;-141.28;43.84
12358;BME280;6243;51.244;6.774;2023-07-29T07:07:44;115150.97;;;-141.28;43.58
12358;BME280;6243;51.244;6.774;2023-07-29T07:10:10;115150.97;;;-141.28;44.05
12358;BME280;6243;51.244;6.774;2023-07-29T07:12:35;115150.97;;;-141.28;43.68
12358;BME280;6243;51.244;6.774;2023-07-29T07:15:01;115150.97;;;-141.28;44.27
12358;BME280;6243;51.244;6.774;2023-07-29T07:17:27;115150.97;;;-141.28;43.95
12358;BME280;6243;51.244;6.774;2023-07-29T07:19:52;115150.97;;;-141.28;44.22
12358;BME280;6243;51.244;6.774;2023-07-29T07:22:19;115150.97;;;-141.28;44.58
12358;BME280;6243;51.244;6.774;2023-07-29T07:24:44;115150.97;;;-141.28;44.80
12358;BME280;6243;51.244;6.774;2023-07-29T07:27:10;115150.97;;;-141.28;43.62
12358;BME280;6243;51.244;6.774;2023-07-29T07:29:35;115150.97;;;-141.28;43.36
12358;BME280;6243;51.244;6.774;2023-07-29T07:32:01;115150.97;;;-141.28;44.00
12358;BME280;6243;51.244;6.774;2023-07-29T07:34:26;115150.97;;;-141.28;43.17
12358;BME280;6243;51.244;6.774;2023-07-29T07:36:52;115150.97;;;-141.28;43.88
12358;BME280;6243;51.244;6.774;2023-07-29T07:39:19;115150.97;;;-141.28;44.89
12358;BME280;6243;51.244;6.774;2023-07-29T07:41:44;115150.97;;;-141.28;44.45
12358;BME280;6243;51.244;6.774;2023-07-29T07:44:10;115150.97;;;-141.28;43.79
12358;BME280;6243;51.244;6.774;2023-07-29T07:46:35;115150.97;;;-141.28;43.35
12358;BME280;6243;51.244;6.774;2023-07-29T07:49:01;115150.97;;;-141.28;43.27
12358;BME280;6243;51.244;6.774;2023-07-29T07:51:26;115150.97;;;-141.28;42.57
12358;BME280;6243;51.244;6.774;2023-07-29T07:53:52;115150.97;;;-141.28;42.30
12358;BME280;6243;51.244;6.774;2023-07-29T07:56:19;115150.97;;;-141.28;42.37
12358;BME280;6243;51.244;6.774;2023-07-29T07:58:44;115150.97;;;-141.28;42.49
12358;BME280;6243;51.244;6.774;2023-07-29T08:01:11;115150.97;;;-141.28;42.33
12358;BME280;6243;51.244;6.774;2023-07-29T08:03:36;115150.97;;;-141.28;41.37
12358;BME280;6243;51.244;6.774;2023-07-29T08:06:02;115150.97;;;-141.28;40.92
12358;BME280;6243;51.244;6.774;2023-07-29T08:08:28;115150.97;;;-141.28;40.30
12358;BME280;6243;51.244;6.774;2023-07-29T08:10:54;115150.97;;;-141.28;40.43
12358;BME280;6243;51.244;6.774;2023-07-29T08:13:21;115150.97;;;-141.28;39.98
12358;BME280;6243;51.244;6.774;2023-07-29T08:15:47;115150.97;;;-141.28;40.14
12358;BME280;6243;51.244;6.774;2023-07-29T08:18:13;115150.97;;;-141.28;39.32
12358;BME280;6243;51.244;6.774;2023-07-29T08:20:38;115150.97;;;-141.28;39.66
12358;BME280;6243;51.244;6.774;2023-07-29T08:23:03;115150.97;;;-141.28;39.69
12358;BME280;6243;51.244;6.774;2023-07-29T08:25:29;115150.97;;;-141.28;39.57
12358;BME280;6243;51.244;6.774;2023-07-29T08:27:55;115150.97;;;-141.28;39.42
12358;BME280;6243;51.244;6.774;2023-07-29T08:30:22;115150.97;;;-141.28;39.00
12358;BME280;6243;51.244;6.774;2023-07-29T08:32:47;115150.97;;;-141.28;38.75
12358;BME280;6243;51.244;6.774;2023-07-29T08:35:13;115150.97;;;-141.28;40.16
12358;BME280;6243;51.244;6.774;2023-07-29T08:37:38;115150.97;;;-141.28;39.52
12358;BME280;6243;51.244;6.774;2023-07-29T08:40:05;115150.97;;;-141.28;40.23
12358;BME280;6243;51.244;6.774;2023-07-29T08:42:31;115150.97;;;-141.28;39.23
12358;BME280;6243;51.244;6.774;2023-07-29T08:45:01;115150.97;;;-141.28;39.13
12358;BME280;6243;51.244;6.774;2023-07-29T08:47:32;115150.97;;;-141.28;40.21
12358;BME280;6243;51.244;6.774;2023-07-29T08:49:59;115150.97;;;-141.28;39.20
12358;BME280;6243;51.244;6.774;2023-07-29T08:52:26;115150.97;;;-141.28;39.56
12358;BME280;6243;51.244;6.774;2023-07-29T08:54:52;115150.97;;;-141.28;39.04
12358;BME280;6243;51.244;6.774;2023-07-29T08:57:18;115150.97;;;-141.28;38.38
12358;BME280;6243;51.244;6.774;2023-07-29T08:59:45;115150.97;;;-141.28;38.00
12358;BME280;6243;51.244;6.774;2023-07-29T09:02:11;115150.97;;;-141.28;38.91
12358;BME280;6243;51.244;6.774;2023-07-29T09:04:38;115150.97;;;-141.28;38.36
12358;BME280;6243;51.244;6.774;2023-07-29T09:07:05;115150.97;;;-141.28;39.24
12358;BME280;6243;51.244;6.774;2023-07-29T09:09:31;115150.97;;;-141.28;37.72
12358;BME280;6243;51.244;6.774;2023-07-29T09:11:56;115150.97;;;-141.28;38.53
12358;BME280;6243;51.244;6.774;2023-07-29T09:14:23;115150.97;;;-141.28;39.00
12358;BME280;6243;51.244;6.774;2023-07-29T09:16:48;115150.97;;;-141.28;38.05
12358;BME280;6243;51.244;6.774;2023-07-29T09:19:14;115150.97;;;-141.28;39.80
12358;BME280;6243;51.244;6.774;2023-07-29T09:21:42;115150.97;;;-141.28;38.73
12358;BME280;6243;51.244;6.774;2023-07-29T09:24:08;115150.97;;;-141.28;38.66
12358;BME280;6243;51.244;6.774;2023-07-29T09:26:34;115150.97;;;-141.28;38.61
12358;BME280;6243;51.244;6.774;2023-07-29T09:29:00;115150.97;;;-141.28;39.32
12358;BME280;6243;51.244;6.774;2023-07-29T09:31:27;115150.97;;;-141.28;39.82
12358;BME280;6243;51.244;6.774;2023-07-29T09:33:56;115150.97;;;-141.28;38.86
12358;BME280;6243;51.244;6.774;2023-07-29T09:36:22;115150.97;;;-141.28;38.37
12358;BME280;6243;51.244;6.774;2023-07-29T09:38:52;115150.97;;;-141.28;39.38
12358;BME280;6243;51.244;6.774;2023-07-29T09:41:18;115150.97;;;-141.28;38.64
12358;BME280;6243;51.244;6.774;2023-07-29T09:43:43;115150.97;;;-141.28;38.74
12358;BME280;6243;51.244;6.774;2023-07-29T09:46:09;115150.97;;;-141.28;38.94
12358;BME280;6243;51.244;6.774;2023-07-29T09:48:36;115150.97;;;-141.28;38.27
12358;BME280;6243;51.244;6.774;2023-07-29T09:51:10;115150.97;;;-141.28;38.37
12358;BME280;6243;51.244;6.774;2023-07-29T09:53:40;115150.97;;;-141.28;37.92
12358;BME280;6243;51.244;6.774;2023-07-29T09:56:07;115150.97;;;-141.28;37.44
12358;BME280;6243;51.244;6.774;2023-07-29T09:58:33;115150.97;;;-141.28;38.74
12358;BME280;6243;51.244;6.774;2023-07-29T10:00:59;115150.97;;;-141.28;39.04
12358;BME280;6243;51.244;6.774;2023-07-29T10:03:25;115150.97;;;-141.28;39.50
12358;BME280;6243;51.244;6.774;2023-07-29T10:05:51;115150.97;;;-141.28;38.25
12358;BME280;6243;51.244;6.774;2023-07-29T10:08:17;115150.97;;;-141.28;37.44
12358;BME280;6243;51.244;6.774;2023-07-29T10:10:44;115150.97;;;-141.28;38.11
12358;BME280;6243;51.244;6.774;2023-07-29T10:13:12;115150.97;;;-141.28;37.26
12358;BME280;6243;51.244;6.774;2023-07-29T10:15:38;115150.97;;;-141.28;38.25
12358;BME280;6243;51.244;6.774;2023-07-29T10:18:04;115150.97;;;-141.28;37.59
12358;BME280;6243;51.244;6.774;2023-07-29T10:20:30;115150.97;;;-141.28;37.02
12358;BME280;6243;51.244;6.774;2023-07-29T10:22:59;115150.97;;;-141.28;37.13
12358;BME280;6243;51.244;6.774;2023-07-29T10:25:30;115150.97;;;-141.28;36.20
12358;BME280;6243;51.244;6.774;2023-07-29T10:28:04;115150.97;;;-141.28;37.53
12358;BME280;6243;51.244;6.774;2023-07-29T10:30:32;115150.97;;;-141.28;37.78
12358;BME280;6243;51.244;6.774;2023-07-29T10:32:58;115150.97;;;-141.28;37.69
12358;BME280;6243;51.244;6.774;2023-07-29T10:35:27;115150.97;;;-141.28;38.48
12358;BME280;6243;51.244;6.774;2023-07-29T10:37:53;115150.97;;;-141.28;36.86
12358;BME280;6243;51.244;6.774;2023-07-29T10:40:19;115150.97;;;-141.28;38.84
12358;BME280;6243;51.244;6.774;2023-07-29T10:43:00;115150.97;;;-141.28;37.84
12358;BME280;6243;51.244;6.774;2023-07-29T10:45:26;115150.97;;;-141.28;36.59
12358;BME280;6243;51.244;6.774;2023-07-29T10:47:53;115150.97;;;-141.28;37.63
12358;BME280;6243;51.244;6.774;2023-07-29T10:50:19;115150.97;;;-141.28;37.02
12358;BME280;6243;51.244;6.774;2023-07-29T10:52:49;115150.97;;;-141.28;36.95
12358;BME280;6243;51.244;6.774;2023-07-29T10:55:26;115150.97;;;-141.28;37.85
12358;BME280;6243;51.244;6.774;2023-07-29T10:57:52;115150.97;;;-141.28;38.96
12358;BME280;6243;51.244;6.774;2023-07-29T11:00:19;115150.97;;;-141.28;37.98
12358;BME280;6243;51.244;6.774;2023-07-29T11:02:56;115150.97;;;-141.28;38.64
12358;BME280;6243;51.244;6.774;2023-07-29T11:05:25;115150.97;;;-141.28;38.01
12358;BME280;6243;51.244;6.774;2023-07-29T11:07:50;115150.97;;;-141.28;39.24
12358;BME280;6243;51.244;6.774;2023-07-29T11:10:16;115150.97;;;-141.28;37.92
12358;BME280;6243;51.244;6.774;2023-07-29T11:12:44;115150.97;;;-141.28;37.06
12358;BME280;6243;51.244;6.774;2023-07-29T11:15:19;115150.97;;;-141.28;37.96
12358;BME280;6243;51.244;6.774;2023-07-29T11:17:46;115150.97;;;-141.28;38.65
12358;BME280;6243;51.244;6.774;2023-07-29T11:20:12;115150.97;;;-141.28;36.87
12358;BME280;6243;51.244;6.774;2023-07-29T11:22:39;115150.97;;;-141.28;36.63
12358;BME280;6243;51.244;6.774;2023-07-29T11:25:07;115150.97;;;-141.28;36.40
12358;BME280;6243;51.244;6.774;2023-07-29T11:27:33;115150.97;;;-141.28;36.49
12358;BME280;6243;51.244;6.774;2023-07-29T11:29:59;115150.97;;;-141.28;37.76
12358;BME280;6243;51.244;6.774;2023-07-29T11:32:25;115150.97;;;-141.28;36.77
12358;BME280;6243;51.244;6.774;2023-07-29T11:34:51;115150.97;;;-141.28;38.17
12358;BME280;6243;51.244;6.774;2023-07-29T11:37:16;115150.97;;;-141.28;36.93
12358;BME280;6243;51.244;6.774;2023-07-29T11:39:44;115150.97;;;-141.28;37.30
12358;BME280;6243;51.244;6.774;2023-07-29T11:42:11;115150.97;;;-141.28;38.09
12358;BME280;6243;51.244;6.774;2023-07-29T11:44:36;115150.97;;;-141.28;40.07
12358;BME280;6243;51.244;6.774;2023-07-29T11:47:03;115150.97;;;-141.28;39.88
12358;BME280;6243;51.244;6.774;2023-07-29T11:49:32;115150.97;;;-141.28;40.48
12358;BME280;6243;51.244;6.774;2023-07-29T11:51:58;115150.97;;;-141.28;38.36
12358;BME280;6243;51.244;6.774;2023-07-29T11:54:24;115150.97;;;-141.28;37.44
12358;BME280;6243;51.244;6.774;2023-07-29T11:56:52;115150.97;;;-141.28;37.65
12358;BME280;6243;51.244;6.774;2023-07-29T11:59:18;115150.97;;;-141.28;37.53
12358;BME280;6243;51.244;6.774;2023-07-29T12:01:43;115150.97;;;-141.28;38.44
12358;BME280;6243;51.244;6.774;2023-07-29T12:04:09;115150.97;;;-141.28;36.84
12358;BME280;6243;51.244;6.774;2023-07-29T12:06:35;115150.97;;;-141.28;36.64
12358;BME280;6243;51.244;6.774;2023-07-29T12:09:02;115150.97;;;-141.28;38.21
12358;BME280;6243;51.244;6.774;2023-07-29T12:11:27;115150.97;;;-141.28;36.79
12358;BME280;6243;51.244;6.774;2023-07-29T12:13:55;115150.97;;;-141.28;37.26
12358;BME280;6243;51.244;6.774;2023-07-29T12:16:20;115150.97;;;-141.28;38.20
12358;BME280;6243;51.244;6.774;2023-07-29T12:18:46;115150.97;;;-141.28;37.38
12358;BME280;6243;51.244;6.774;2023-07-29T12:21:13;115150.97;;;-141.28;36.34
12358;BME280;6243;51.244;6.774;2023-07-29T12:23:39;115150.97;;;-141.28;35.46
12358;BME280;6243;51.244;6.774;2023-07-29T12:26:05;115150.97;;;-141.28;35.33
12358;BME280;6243;51.244;6.774;2023-07-29T12:28:31;115150.97;;;-141.28;36.51
12358;BME280;6243;51.244;6.774;2023-07-29T12:30:59;115150.97;;;-141.28;36.97
12358;BME280;6243;51.244;6.774;2023-07-29T12:33:29;115150.97;;;-141.28;35.79
12358;BME280;6243;51.244;6.774;2023-07-29T12:35:55;115150.97;;;-141.28;35.51